sensor_id;sensor_type;location;lat;lon;timestamp;pressure;altitude;pressure_sealevel;temperature;humidity
51460;BME280;37534;39.772;2.718;2023-04-02T00:01:53;101177.72;;;11.78;100.00
51460;BME280;37534;39.772;2.718;2023-04-02T00:04:21;101207.03;;;11.77;100.00
51460;BME280;37534;39.772;2.718;2023-04-02T00:06:53;101243.16;;;11.80;100.00
51460;BME280;37534;39.772;2.718;2023-04-02T00:09:30;101249.25;;;11.76;100.00
51460;BME280;37534;39.772;2.718;2023-04-02T00:11:58;101262.13;;;11.79;100.00
51460;BME280;37534;39.772;2.718;2023-04-02T00:14:44;101257.63;;;11.89;100.00
51460;BME280;37534;39.772;2.718;2023-04-02T00:17:11;101245.75;;;11.80;100.00
51460;BME280;37534;39.772;2.718;2023-04-02T00:22:11;101236.31;;;11.77;100.00
51460;BME280;37534;39.772;2.718;2023-04-02T00:24:38;101221.47;;;11.86;100.00
51460;BME280;37534;39.772;2.718;2023-04-02T00:27:11;101219.28;;;11.69;100.00
51460;BME280;37534;39.772;2.718;2023-04-02T00:29:48;101218.19;;;11.79;100.00
51460;BME280;37534;39.772;2.718;2023-04-02T00:32:40;101197.47;;;11.80;100.00
51460;BME280;37534;39.772;2.718;2023-04-02T00:35:19;101191.16;;;11.94;100.00
51460;BME280;37534;39.772;2.718;2023-04-02T00:37:48;101189.22;;;12.02;100.00
51460;BME280;37534;39.772;2.718;2023-04-02T00:40:27;101184.66;;;12.13;100.00
51460;BME280;37534;39.772;2.718;2023-04-02T00:42:55;101174.53;;;12.04;100.00
51460;BME280;37534;39.772;2.718;2023-04-02T00:45:27;101171.91;;;12.06;100.00
51460;BME280;37534;39.772;2.718;2023-04-02T00:47:55;101187.13;;;12.18;100.00
51460;BME280;37534;39.772;2.718;2023-04-02T00:50:34;101197.41;;;12.21;100.00
51460;BME280;37534;39.772;2.718;2023-04-02T00:53:08;101190.94;;;12.38;100.00
51460;BME280;37534;39.772;2.718;2023-04-02T00:55:38;101189.88;;;12.45;100.00
51460;BME280;37534;39.772;2.718;2023-04-02T00:58:34;101194.53;;;12.32;100.00
51460;BME280;37534;39.772;2.718;2023-04-02T01:01:01;101197.31;;;12.24;100.00
51460;BME280;37534;39.772;2.718;2023-04-02T01:03:35;101203.13;;;12.32;100.00
51460;BME280;37534;39.772;2.718;2023-04-02T01:06:11;101200.72;;;12.26;100.00
51460;BME280;37534;39.772;2.718;2023-04-02T01:09:20;101199.00;;;12.25;100.00
51460;BME280;37534;39.772;2.718;2023-04-02T01:17:42;101175.25;;;12.44;100.00
51460;BME280;37534;39.772;2.718;2023-04-02T01:26:11;101159.50;;;12.53;100.00
51460;BME280;37534;39.772;2.718;2023-04-02T01:31:10;101156.38;;;12.71;100.00
51460;BME280;37534;39.772;2.718;2023-04-02T01:33:40;101155.03;;;12.58;100.00
51460;BME280;37534;39.772;2.718;2023-04-02T01:41:48;101149.53;;;12.70;100.00
51460;BME280;37534;39.772;2.718;2023-04-02T01:44:26;101144.09;;;12.80;100.00
51460;BME280;37534;39.772;2.718;2023-04-02T01:46:53;101147.75;;;12.72;100.00
51460;BME280;37534;39.772;2.718;2023-04-02T01:49:21;101144.41;;;12.67;100.00
51460;BME280;37534;39.772;2.718;2023-04-02T01:51:52;101130.75;;;12.62;100.00
51460;BME280;37534;39.772;2.718;2023-04-02T01:54:20;101141.56;;;12.77;100.00
51460;BME280;37534;39.772;2.718;2023-04-02T01:56:46;101137.47;;;12.69;100.00
51460;BME280;37534;39.772;2.718;2023-04-02T01:59:13;101127.00;;;12.74;100.00
51460;BME280;37534;39.772;2.718;2023-04-02T02:02:25;101150.88;;;12.84;100.00
51460;BME280;37534;39.772;2.718;2023-04-02T02:04:32;101150.88;;;12.84;100.00
51460;BME280;37534;39.772;2.718;2023-04-02T02:06:58;101143.72;;;12.92;100.00
51460;BME280;37534;39.772;2.718;2023-04-02T02:09:29;101148.88;;;12.93;100.00
51460;BME280;37534;39.772;2.718;2023-04-02T02:11:57;101161.81;;;12.93;100.00
51460;BME280;37534;39.772;2.718;2023-04-02T02:14:25;101158.31;;;12.94;100.00
51460;BME280;37534;39.772;2.718;2023-04-02T02:16:54;101169.56;;;12.95;100.00
51460;BME280;37534;39.772;2.718;2023-04-02T02:19:40;101167.00;;;12.93;100.00
51460;BME280;37534;39.772;2.718;2023-04-02T02:22:33;101160.84;;;12.98;100.00
51460;BME280;37534;39.772;2.718;2023-04-02T02:25:02;101149.63;;;12.97;100.00
51460;BME280;37534;39.772;2.718;2023-04-02T02:27:42;101156.59;;;12.95;100.00
51460;BME280;37534;39.772;2.718;2023-04-02T02:31:05;101153.91;;;12.98;100.00
51460;BME280;37534;39.772;2.718;2023-04-02T02:43:58;101161.22;;;13.13;100.00
51460;BME280;37534;39.772;2.718;2023-04-02T02:46:26;101158.72;;;13.10;100.00
51460;BME280;37534;39.772;2.718;2023-04-02T02:48:54;101162.34;;;13.05;100.00
51460;BME280;37534;39.772;2.718;2023-04-02T02:51:28;101163.16;;;13.07;100.00
51460;BME280;37534;39.772;2.718;2023-04-02T02:53:58;101157.06;;;13.09;100.00
51460;BME280;37534;39.772;2.718;2023-04-02T02:56:27;101167.13;;;13.19;100.00
51460;BME280;37534;39.772;2.718;2023-04-02T02:58:53;101174.19;;;13.13;100.00
51460;BME280;37534;39.772;2.718;2023-04-02T03:01:19;101158.13;;;13.02;99.90
51460;BME280;37534;39.772;2.718;2023-04-02T03:03:46;101168.06;;;13.16;99.15
51460;BME280;37534;39.772;2.718;2023-04-02T03:06:15;101163.03;;;13.11;100.00
51460;BME280;37534;39.772;2.718;2023-04-02T03:09:00;101158.16;;;13.01;99.78
51460;BME280;37534;39.772;2.718;2023-04-02T03:14:39;101158.34;;;12.93;100.00
51460;BME280;37534;39.772;2.718;2023-04-02T03:17:16;101166.00;;;12.98;100.00
51460;BME280;37534;39.772;2.718;2023-04-02T03:19:52;101160.78;;;12.99;100.00
51460;BME280;37534;39.772;2.718;2023-04-02T03:22:46;101165.88;;;13.02;100.00
51460;BME280;37534;39.772;2.718;2023-04-02T03:27:54;101171.31;;;12.93;100.00
51460;BME280;37534;39.772;2.718;2023-04-02T03:30:47;101187.03;;;12.87;100.00
51460;BME280;37534;39.772;2.718;2023-04-02T03:33:20;101179.41;;;12.81;100.00
51460;BME280;37534;39.772;2.718;2023-04-02T03:35:58;101183.91;;;12.76;100.00
51460;BME280;37534;39.772;2.718;2023-04-02T03:38:40;101178.63;;;12.79;100.00
51460;BME280;37534;39.772;2.718;2023-04-02T03:41:36;101175.72;;;12.89;100.00
51460;BME280;37534;39.772;2.718;2023-04-02T03:44:13;101170.47;;;12.92;100.00
51460;BME280;37534;39.772;2.718;2023-04-02T03:46:43;101176.50;;;12.93;100.00
51460;BME280;37534;39.772;2.718;2023-04-02T03:49:17;101179.91;;;12.95;100.00
51460;BME280;37534;39.772;2.718;2023-04-02T03:54:43;101198.03;;;12.95;100.00
51460;BME280;37534;39.772;2.718;2023-04-02T03:57:25;101195.19;;;13.04;100.00
51460;BME280;37534;39.772;2.718;2023-04-02T04:02:50;101203.75;;;13.06;100.00
51460;BME280;37534;39.772;2.718;2023-04-02T04:05:31;101202.22;;;12.99;100.00
51460;BME280;37534;39.772;2.718;2023-04-02T04:07:59;101215.78;;;13.07;100.00
51460;BME280;37534;39.772;2.718;2023-04-02T04:10:27;101214.19;;;13.03;100.00
51460;BME280;37534;39.772;2.718;2023-04-02T04:12:55;101210.88;;;12.98;100.00
51460;BME280;37534;39.772;2.718;2023-04-02T04:23:08;101220.31;;;13.01;100.00
51460;BME280;37534;39.772;2.718;2023-04-02T04:25:35;101228.06;;;13.02;99.05
51460;BME280;37534;39.772;2.718;2023-04-02T04:30:57;101241.81;;;13.04;99.33
51460;BME280;37534;39.772;2.718;2023-04-02T04:33:27;101241.03;;;13.01;98.86
51460;BME280;37534;39.772;2.718;2023-04-02T04:35:59;101253.97;;;13.02;98.41
51460;BME280;37534;39.772;2.718;2023-04-02T04:41:03;101242.97;;;12.92;98.19
51460;BME280;37534;39.772;2.718;2023-04-02T04:43:37;101247.19;;;12.97;96.98
51460;BME280;37534;39.772;2.718;2023-04-02T04:46:10;101235.59;;;12.79;98.57
51460;BME280;37534;39.772;2.718;2023-04-02T04:48:55;101231.44;;;12.73;96.38
51460;BME280;37534;39.772;2.718;2023-04-02T04:51:38;101235.75;;;12.72;98.03
51460;BME280;37534;39.772;2.718;2023-04-02T04:54:12;101258.00;;;12.80;98.47
51460;BME280;37534;39.772;2.718;2023-04-02T04:56:39;101253.84;;;12.74;98.34
51460;BME280;37534;39.772;2.718;2023-04-02T04:59:25;101269.47;;;12.71;97.49
51460;BME280;37534;39.772;2.718;2023-04-02T05:02:09;101283.97;;;12.77;97.21
51460;BME280;37534;39.772;2.718;2023-04-02T05:04:38;101283.88;;;12.81;96.16
51460;BME280;37534;39.772;2.718;2023-04-02T05:07:09;101290.06;;;12.76;90.48
51460;BME280;37534;39.772;2.718;2023-04-02T05:12:58;101295.75;;;12.88;90.84
51460;BME280;37534;39.772;2.718;2023-04-02T05:15:32;101294.97;;;12.86;90.38
51460;BME280;37534;39.772;2.718;2023-04-02T05:23:19;101313.38;;;12.76;93.24
51460;BME280;37534;39.772;2.718;2023-04-02T05:31:17;101326.88;;;12.87;99.12
51460;BME280;37534;39.772;2.718;2023-04-02T05:33:46;101334.66;;;12.87;98.62
51460;BME280;37534;39.772;2.718;2023-04-02T05:36:26;101334.72;;;12.84;97.37
51460;BME280;37534;39.772;2.718;2023-04-02T05:38:54;101331.97;;;12.90;98.33
51460;BME280;37534;39.772;2.718;2023-04-02T05:41:33;101332.97;;;12.84;96.85
51460;BME280;37534;39.772;2.718;2023-04-02T05:44:15;101340.81;;;12.83;99.19
51460;BME280;37534;39.772;2.718;2023-04-02T05:46:50;101345.97;;;12.83;99.26
51460;BME280;37534;39.772;2.718;2023-04-02T05:49:29;101346.84;;;12.82;98.68
51460;BME280;37534;39.772;2.718;2023-04-02T05:51:59;101350.47;;;12.76;100.00
51460;BME280;37534;39.772;2.718;2023-04-02T05:54:48;101351.47;;;12.70;100.00
51460;BME280;37534;39.772;2.718;2023-04-02T05:57:20;101352.34;;;12.69;100.00
51460;BME280;37534;39.772;2.718;2023-04-02T05:59:51;101360.97;;;12.68;98.24
51460;BME280;37534;39.772;2.718;2023-04-02T06:02:28;101364.25;;;12.77;98.95
51460;BME280;37534;39.772;2.718;2023-04-02T06:05:00;101359.97;;;12.76;99.72
51460;BME280;37534;39.772;2.718;2023-04-02T06:07:44;101359.34;;;12.66;99.57
51460;BME280;37534;39.772;2.718;2023-04-02T06:12:59;101370.41;;;12.72;100.00
51460;BME280;37534;39.772;2.718;2023-04-02T06:15:29;101364.25;;;12.77;96.78
51460;BME280;37534;39.772;2.718;2023-04-02T06:18:05;101376.22;;;12.81;97.84
51460;BME280;37534;39.772;2.718;2023-04-02T06:20:32;101372.91;;;12.76;99.17
51460;BME280;37534;39.772;2.718;2023-04-02T06:26:04;101373.84;;;12.71;100.00
51460;BME280;37534;39.772;2.718;2023-04-02T06:28:37;101375.81;;;12.63;99.84
51460;BME280;37534;39.772;2.718;2023-04-02T06:31:29;101381.88;;;12.61;99.46
51460;BME280;37534;39.772;2.718;2023-04-02T06:34:01;101379.25;;;12.62;98.19
51460;BME280;37534;39.772;2.718;2023-04-02T06:36:28;101375.50;;;12.76;97.88
51460;BME280;37534;39.772;2.718;2023-04-02T06:39:03;101368.53;;;12.78;94.73
51460;BME280;37534;39.772;2.718;2023-04-02T06:41:30;101364.97;;;12.82;93.70
51460;BME280;37534;39.772;2.718;2023-04-02T06:44:05;101383.84;;;12.87;95.87
51460;BME280;37534;39.772;2.718;2023-04-02T06:46:41;101396.72;;;12.90;96.39
51460;BME280;37534;39.772;2.718;2023-04-02T06:49:24;101394.97;;;12.90;97.86
51460;BME280;37534;39.772;2.718;2023-04-02T06:51:55;101398.44;;;12.89;98.22
51460;BME280;37534;39.772;2.718;2023-04-02T06:54:22;101394.16;;;12.90;98.44
51460;BME280;37534;39.772;2.718;2023-04-02T06:56:53;101404.03;;;13.08;96.75
51460;BME280;37534;39.772;2.718;2023-04-02T06:59:20;101404.97;;;13.06;94.81
51460;BME280;37534;39.772;2.718;2023-04-02T07:04:19;101400.66;;;13.05;94.47
51460;BME280;37534;39.772;2.718;2023-04-02T07:06:45;101404.56;;;13.21;95.26
51460;BME280;37534;39.772;2.718;2023-04-02T07:09:11;101399.19;;;13.29;96.04
51460;BME280;37534;39.772;2.718;2023-04-02T07:11:36;101420.53;;;13.40;95.36
51460;BME280;37534;39.772;2.718;2023-04-02T07:14:02;101426.19;;;13.55;96.81
51460;BME280;37534;39.772;2.718;2023-04-02T07:16:30;101412.81;;;13.70;95.15
51460;BME280;37534;39.772;2.718;2023-04-02T07:18:56;101412.47;;;13.82;92.55
51460;BME280;37534;39.772;2.718;2023-04-02T07:21:24;101419.13;;;13.91;88.74
51460;BME280;37534;39.772;2.718;2023-04-02T07:23:51;101408.34;;;14.05;88.49
51460;BME280;37534;39.772;2.718;2023-04-02T07:26:21;101396.09;;;14.10;85.70
51460;BME280;37534;39.772;2.718;2023-04-02T07:28:47;101390.19;;;14.05;86.76
51460;BME280;37534;39.772;2.718;2023-04-02T07:31:22;101402.41;;;14.30;86.86
51460;BME280;37534;39.772;2.718;2023-04-02T07:33:54;101412.88;;;14.55;84.88
51460;BME280;37534;39.772;2.718;2023-04-02T07:36:22;101412.78;;;14.59;84.63
51460;BME280;37534;39.772;2.718;2023-04-02T07:38:48;101423.97;;;14.61;84.14
51460;BME280;37534;39.772;2.718;2023-04-02T07:41:15;101424.22;;;14.52;82.57
51460;BME280;37534;39.772;2.718;2023-04-02T07:43:41;101428.97;;;14.39;83.53
51460;BME280;37534;39.772;2.718;2023-04-02T07:46:08;101435.88;;;14.39;82.83
51460;BME280;37534;39.772;2.718;2023-04-02T07:48:35;101437.88;;;14.31;82.33
51460;BME280;37534;39.772;2.718;2023-04-02T07:51:01;101447.31;;;14.33;83.27
51460;BME280;37534;39.772;2.718;2023-04-02T07:53:34;101449.34;;;14.23;82.12
51460;BME280;37534;39.772;2.718;2023-04-02T07:56:02;101446.88;;;14.19;81.56
51460;BME280;37534;39.772;2.718;2023-04-02T07:58:29;101432.59;;;14.34;79.76
51460;BME280;37534;39.772;2.718;2023-04-02T08:00:55;101439.69;;;15.62;73.94
51460;BME280;37534;39.772;2.718;2023-04-02T08:03:20;101443.97;;;17.22;64.03
51460;BME280;37534;39.772;2.718;2023-04-02T08:05:53;101434.28;;;18.43;57.22
51460;BME280;37534;39.772;2.718;2023-04-02T08:08:21;101441.47;;;18.19;54.91
51460;BME280;37534;39.772;2.718;2023-04-02T08:10:47;101436.06;;;18.42;56.13
51460;BME280;37534;39.772;2.718;2023-04-02T08:13:13;101455.19;;;17.86;57.85
51460;BME280;37534;39.772;2.718;2023-04-02T08:15:39;101466.41;;;17.47;59.86
51460;BME280;37534;39.772;2.718;2023-04-02T08:18:05;101455.69;;;17.12;61.28
51460;BME280;37534;39.772;2.718;2023-04-02T08:20:31;101476.78;;;16.85;63.54
51460;BME280;37534;39.772;2.718;2023-04-02T08:22:57;101478.06;;;16.29;63.90
51460;BME280;37534;39.772;2.718;2023-04-02T08:25:23;101470.72;;;16.85;62.27
51460;BME280;37534;39.772;2.718;2023-04-02T08:27:51;101463.69;;;17.50;61.28
51460;BME280;37534;39.772;2.718;2023-04-02T08:30:17;101463.94;;;17.64;60.66
51460;BME280;37534;39.772;2.718;2023-04-02T08:32:43;101442.81;;;17.69;60.96
51460;BME280;37534;39.772;2.718;2023-04-02T08:35:11;101449.47;;;18.71;59.06
51460;BME280;37534;39.772;2.718;2023-04-02T08:37:36;101437.31;;;19.75;53.54
51460;BME280;37534;39.772;2.718;2023-04-02T08:40:03;101450.72;;;20.66;50.53
51460;BME280;37534;39.772;2.718;2023-04-02T08:42:43;101454.25;;;20.81;47.30
51460;BME280;37534;39.772;2.718;2023-04-02T08:48:14;101464.28;;;18.34;54.45
51460;BME280;37534;39.772;2.718;2023-04-02T08:50:42;101475.13;;;17.87;57.54
51460;BME280;37534;39.772;2.718;2023-04-02T08:53:21;101463.81;;;17.47;60.86
51460;BME280;37534;39.772;2.718;2023-04-02T09:03:59;101457.34;;;22.62;43.46
51460;BME280;37534;39.772;2.718;2023-04-02T09:06:25;101465.75;;;22.67;42.16
51460;BME280;37534;39.772;2.718;2023-04-02T09:08:54;101473.97;;;21.77;43.41
51460;BME280;37534;39.772;2.718;2023-04-02T09:11:22;101480.63;;;21.24;44.93
51460;BME280;37534;39.772;2.718;2023-04-02T09:13:55;101462.31;;;20.46;46.69
51460;BME280;37534;39.772;2.718;2023-04-02T09:16:33;101473.84;;;19.94;48.70
51460;BME280;37534;39.772;2.718;2023-04-02T09:18:59;101474.19;;;20.04;50.45
51460;BME280;37534;39.772;2.718;2023-04-02T09:23:53;101473.03;;;20.09;48.21
51460;BME280;37534;39.772;2.718;2023-04-02T09:26:26;101464.84;;;20.31;47.34
51460;BME280;37534;39.772;2.718;2023-04-02T09:29:40;101468.97;;;20.36;47.69
51460;BME280;37534;39.772;2.718;2023-04-02T09:31:45;101467.97;;;20.22;49.15
51460;BME280;37534;39.772;2.718;2023-04-02T09:34:27;101473.66;;;19.81;51.20
51460;BME280;37534;39.772;2.718;2023-04-02T09:36:55;101465.22;;;18.89;54.31
51460;BME280;37534;39.772;2.718;2023-04-02T09:39:24;101467.47;;;18.41;57.10
51460;BME280;37534;39.772;2.718;2023-04-02T09:41:51;101473.06;;;19.24;55.83
51460;BME280;37534;39.772;2.718;2023-04-02T09:44:24;101473.22;;;20.54;51.25
51460;BME280;37534;39.772;2.718;2023-04-02T09:46:56;101473.38;;;22.01;45.29
51460;BME280;37534;39.772;2.718;2023-04-02T09:49:38;101476.22;;;23.21;42.84
51460;BME280;37534;39.772;2.718;2023-04-02T09:54:42;101487.19;;;26.17;36.79
51460;BME280;37534;39.772;2.718;2023-04-02T09:57:22;101488.50;;;26.01;36.45
51460;BME280;37534;39.772;2.718;2023-04-02T10:00:10;101482.59;;;25.05;37.82
51460;BME280;37534;39.772;2.718;2023-04-02T10:02:41;101497.97;;;23.89;39.92
51460;BME280;37534;39.772;2.718;2023-04-02T10:05:20;101493.72;;;23.22;41.43
51460;BME280;37534;39.772;2.718;2023-04-02T10:07:48;101497.81;;;23.26;41.56
51460;BME280;37534;39.772;2.718;2023-04-02T10:10:35;101491.69;;;25.01;39.01
51460;BME280;37534;39.772;2.718;2023-04-02T10:15:58;101490.13;;;25.34;36.35
51460;BME280;37534;39.772;2.718;2023-04-02T10:18:56;101505.09;;;25.80;35.74
51460;BME280;37534;39.772;2.718;2023-04-02T10:21:41;101497.13;;;25.69;35.75
51460;BME280;37534;39.772;2.718;2023-04-02T10:24:17;101495.72;;;24.82;36.70
51460;BME280;37534;39.772;2.718;2023-04-02T10:26:54;101501.53;;;24.01;38.58
51460;BME280;37534;39.772;2.718;2023-04-02T10:29:52;101503.44;;;23.60;39.61
51460;BME280;37534;39.772;2.718;2023-04-02T10:45:53;101496.19;;;22.71;42.55
51460;BME280;37534;39.772;2.718;2023-04-02T10:54:22;101505.53;;;23.55;41.15
51460;BME280;37534;39.772;2.718;2023-04-02T10:56:45;101497.41;;;24.09;40.22
51460;BME280;37534;39.772;2.718;2023-04-02T10:59:21;101484.03;;;25.09;38.56
51460;BME280;37534;39.772;2.718;2023-04-02T11:01:48;101497.91;;;26.05;36.81
51460;BME280;37534;39.772;2.718;2023-04-02T11:04:23;101496.06;;;26.71;35.84
51460;BME280;37534;39.772;2.718;2023-04-02T11:07:07;101501.56;;;28.35;34.24
51460;BME280;37534;39.772;2.718;2023-04-02T11:09:41;101495.25;;;28.17;33.06
51460;BME280;37534;39.772;2.718;2023-04-02T11:12:40;101489.09;;;28.06;33.27
51460;BME280;37534;39.772;2.718;2023-04-02T11:15:07;101478.09;;;25.30;35.85
51460;BME280;37534;39.772;2.718;2023-04-02T11:17:38;101480.84;;;24.44;37.74
51460;BME280;37534;39.772;2.718;2023-04-02T11:23:12;101479.38;;;26.60;35.69
51460;BME280;37534;39.772;2.718;2023-04-02T11:25:40;101477.56;;;26.60;34.66
51460;BME280;37534;39.772;2.718;2023-04-02T11:30:46;101473.59;;;27.40;34.08
51460;BME280;37534;39.772;2.718;2023-04-02T11:33:36;101467.47;;;27.80;32.19
51460;BME280;37534;39.772;2.718;2023-04-02T11:36:23;101473.13;;;27.35;32.37
51460;BME280;37534;39.772;2.718;2023-04-02T11:38:50;101472.53;;;27.53;33.27
51460;BME280;37534;39.772;2.718;2023-04-02T11:44:23;101475.53;;;28.70;31.57
51460;BME280;37534;39.772;2.718;2023-04-02T11:46:49;101480.50;;;27.53;32.42
51460;BME280;37534;39.772;2.718;2023-04-02T11:49:38;101479.84;;;26.21;34.77
51460;BME280;37534;39.772;2.718;2023-04-02T11:52:18;101479.59;;;25.79;35.46
51460;BME280;37534;39.772;2.718;2023-04-02T11:54:45;101489.22;;;26.14;35.02
51460;BME280;37534;39.772;2.718;2023-04-02T12:05:26;101489.59;;;27.91;32.20
51460;BME280;37534;39.772;2.718;2023-04-02T12:10:48;101480.22;;;26.92;32.69
51460;BME280;37534;39.772;2.718;2023-04-02T12:13:45;101481.53;;;26.11;33.66
51460;BME280;37534;39.772;2.718;2023-04-02T12:16:06;101470.94;;;24.72;36.30
51460;BME280;37534;39.772;2.718;2023-04-02T12:18:33;101466.56;;;24.60;36.43
51460;BME280;37534;39.772;2.718;2023-04-02T12:20:59;101458.28;;;24.89;36.09
51460;BME280;37534;39.772;2.718;2023-04-02T12:23:27;101449.66;;;25.33;36.06
51460;BME280;37534;39.772;2.718;2023-04-02T12:26:02;101457.00;;;25.52;35.71
51460;BME280;37534;39.772;2.718;2023-04-02T12:28:31;101462.44;;;25.73;35.41
51460;BME280;37534;39.772;2.718;2023-04-02T12:31:24;101464.25;;;27.04;33.09
51460;BME280;37534;39.772;2.718;2023-04-02T12:33:52;101468.66;;;27.15;33.16
51460;BME280;37534;39.772;2.718;2023-04-02T12:36:20;101461.34;;;27.80;31.77
51460;BME280;37534;39.772;2.718;2023-04-02T12:38:49;101461.69;;;26.92;33.03
51460;BME280;37534;39.772;2.718;2023-04-02T12:41:22;101473.97;;;25.95;34.21
51460;BME280;37534;39.772;2.718;2023-04-02T12:44:16;101468.16;;;24.49;36.21
51460;BME280;37534;39.772;2.718;2023-04-02T12:46:43;101479.00;;;23.84;37.40
51460;BME280;37534;39.772;2.718;2023-04-02T12:52:11;101465.97;;;24.80;37.42
51460;BME280;37534;39.772;2.718;2023-04-02T12:54:44;101458.84;;;25.16;36.22
51460;BME280;37534;39.772;2.718;2023-04-02T12:59:53;101465.19;;;27.66;33.42
51460;BME280;37534;39.772;2.718;2023-04-02T13:02:21;101470.44;;;28.18;32.56
51460;BME280;37534;39.772;2.718;2023-04-02T13:04:55;101466.50;;;28.32;32.39
51460;BME280;37534;39.772;2.718;2023-04-02T13:07:25;101466.50;;;29.29;31.55
51460;BME280;37534;39.772;2.718;2023-04-02T13:09:53;101460.69;;;28.67;31.20
51460;BME280;37534;39.772;2.718;2023-04-02T13:12:34;101462.16;;;28.21;31.51
51460;BME280;37534;39.772;2.718;2023-04-02T13:15:03;101462.09;;;28.91;31.34
51460;BME280;37534;39.772;2.718;2023-04-02T13:17:39;101463.22;;;28.69;31.08
51460;BME280;37534;39.772;2.718;2023-04-02T13:22:54;101459.25;;;29.69;30.46
51460;BME280;37534;39.772;2.718;2023-04-02T13:25:30;101463.34;;;30.19;29.86
51460;BME280;37534;39.772;2.718;2023-04-02T13:27:57;101454.88;;;31.13;28.94
51460;BME280;37534;39.772;2.718;2023-04-02T13:30:25;101461.34;;;32.22;27.65
51460;BME280;37534;39.772;2.718;2023-04-02T13:32:52;101440.00;;;32.22;27.61
51460;BME280;37534;39.772;2.718;2023-04-02T13:35:18;101438.72;;;32.59;27.38
51460;BME280;37534;39.772;2.718;2023-04-02T13:37:43;101441.84;;;33.04;25.88
51460;BME280;37534;39.772;2.718;2023-04-02T13:40:12;101441.97;;;33.27;25.62
51460;BME280;37534;39.772;2.718;2023-04-02T13:42:43;101435.19;;;32.91;25.66
51460;BME280;37534;39.772;2.718;2023-04-02T13:45:26;101431.34;;;32.86;25.15
51460;BME280;37534;39.772;2.718;2023-04-02T13:47:53;101424.31;;;32.93;25.69
51460;BME280;37534;39.772;2.718;2023-04-02T13:50:21;101430.03;;;32.73;26.42
51460;BME280;37534;39.772;2.718;2023-04-02T13:52:51;101425.53;;;31.13;27.85
51460;BME280;37534;39.772;2.718;2023-04-02T13:55:19;101431.78;;;30.78;27.67
51460;BME280;37534;39.772;2.718;2023-04-02T13:57:47;101430.13;;;29.95;28.39
51460;BME280;37534;39.772;2.718;2023-04-02T14:00:14;101426.03;;;29.73;28.93
51460;BME280;37534;39.772;2.718;2023-04-02T14:02:44;101433.44;;;28.36;30.50
51460;BME280;37534;39.772;2.718;2023-04-02T14:05:34;101438.59;;;27.46;32.01
51460;BME280;37534;39.772;2.718;2023-04-02T14:08:11;101435.50;;;26.02;33.60
51460;BME280;37534;39.772;2.718;2023-04-02T14:13:58;101431.81;;;25.71;34.96
51460;BME280;37534;39.772;2.718;2023-04-02T14:28:09;101448.22;;;26.52;34.10
51460;BME280;37534;39.772;2.718;2023-04-02T14:36:17;101436.72;;;25.98;34.83
51460;BME280;37534;39.772;2.718;2023-04-02T14:38:56;101423.97;;;26.47;34.19
51460;BME280;37534;39.772;2.718;2023-04-02T14:44:04;101411.44;;;26.49;34.07
51460;BME280;37534;39.772;2.718;2023-04-02T14:46:32;101420.56;;;27.09;33.31
51460;BME280;37534;39.772;2.718;2023-04-02T14:54:58;101408.94;;;26.47;34.46
51460;BME280;37534;39.772;2.718;2023-04-02T14:57:31;101403.19;;;26.10;34.80
51460;BME280;37534;39.772;2.718;2023-04-02T15:02:42;101414.72;;;26.73;34.22
51460;BME280;37534;39.772;2.718;2023-04-02T15:05:19;101384.69;;;26.84;34.03
51460;BME280;37534;39.772;2.718;2023-04-02T15:07:58;101409.25;;;26.54;34.85
51460;BME280;37534;39.772;2.718;2023-04-02T15:10:31;101404.97;;;26.42;35.15
51460;BME280;37534;39.772;2.718;2023-04-02T15:13:05;101402.22;;;26.76;34.99
51460;BME280;37534;39.772;2.718;2023-04-02T15:15:41;101404.53;;;26.69;34.22
51460;BME280;37534;39.772;2.718;2023-04-02T15:18:12;101400.94;;;26.59;34.45
51460;BME280;37534;39.772;2.718;2023-04-02T15:23:58;101410.41;;;25.63;36.42
51460;BME280;37534;39.772;2.718;2023-04-02T15:31:44;101411.38;;;25.61;35.79
51460;BME280;37534;39.772;2.718;2023-04-02T15:34:32;101415.50;;;24.61;36.96
51460;BME280;37534;39.772;2.718;2023-04-02T15:37:21;101419.09;;;24.60;37.11
51460;BME280;37534;39.772;2.718;2023-04-02T15:42:29;101409.03;;;23.03;40.28
51460;BME280;37534;39.772;2.718;2023-04-02T15:45:16;101425.16;;;23.11;40.26
51460;BME280;37534;39.772;2.718;2023-04-02T15:50:43;101428.00;;;23.21;39.99
51460;BME280;37534;39.772;2.718;2023-04-02T15:58:48;101406.81;;;22.56;41.49
51460;BME280;37534;39.772;2.718;2023-04-02T16:01:52;101395.72;;;22.24;42.35
51460;BME280;37534;39.772;2.718;2023-04-02T16:10:22;101374.88;;;21.94;42.99
51460;BME280;37534;39.772;2.718;2023-04-02T16:12:51;101367.00;;;21.94;42.74
51460;BME280;37534;39.772;2.718;2023-04-02T16:15:21;101369.47;;;21.39;43.33
51460;BME280;37534;39.772;2.718;2023-04-02T16:18:02;101371.72;;;21.60;43.50
51460;BME280;37534;39.772;2.718;2023-04-02T16:20:41;101371.06;;;21.42;45.03
51460;BME280;37534;39.772;2.718;2023-04-02T16:23:21;101360.44;;;20.86;45.24
51460;BME280;37534;39.772;2.718;2023-04-02T16:29:23;101369.78;;;20.76;46.08
51460;BME280;37534;39.772;2.718;2023-04-02T16:31:55;101371.25;;;20.33;47.00
51460;BME280;37534;39.772;2.718;2023-04-02T16:42:47;101372.19;;;19.69;50.17
51460;BME280;37534;39.772;2.718;2023-04-02T16:45:32;101369.28;;;19.57;51.07
51460;BME280;37534;39.772;2.718;2023-04-02T16:50:35;101363.88;;;19.61;50.63
51460;BME280;37534;39.772;2.718;2023-04-02T16:53:30;101358.22;;;19.52;52.14
51460;BME280;37534;39.772;2.718;2023-04-02T16:56:08;101360.06;;;19.50;52.38
51460;BME280;37534;39.772;2.718;2023-04-02T16:59:10;101364.34;;;19.35;52.90